createdAt,value
2023-01-27T14:05:43.797Z,103384.84
2023-01-27T14:08:41.554Z,103375.78
2023-01-27T14:11:16.001Z,103364.31
2023-01-27T14:14:08.951Z,103363.22
2023-01-27T14:17:03.176Z,103355.19
2023-01-27T14:19:44.772Z,103354.19
2023-01-27T14:22:20.479Z,103350.72
2023-01-27T14:24:54.344Z,103350.88
2023-01-27T14:27:29.613Z,103360.53
2023-01-27T14:30:14.402Z,103374.63
2023-01-27T14:32:44.248Z,103372.97
2023-01-27T14:35:23.219Z,103373.81
2023-01-27T14:37:58.469Z,103378.03
2023-01-27T14:40:39.003Z,103370.03
2023-01-27T14:43:21.876Z,103365.47
2023-01-27T14:45:53.512Z,103367.06
2023-01-27T14:48:38.290Z,103366.13
2023-01-27T14:51:08.058Z,103362.56
2023-01-27T14:54:15.810Z,103363.38
2023-01-27T14:56:57.407Z,103361.50
2023-01-27T14:59:36.156Z,103358.00
2023-01-27T15:02:07.818Z,103357.09
2023-01-27T15:04:53.393Z,103357.97
2023-01-27T15:07:29.048Z,103353.63
2023-01-27T15:10:21.459Z,103356.25
2023-01-27T15:13:00.280Z,103354.56
2023-01-27T15:15:48.427Z,103354.59
2023-01-27T15:18:43.147Z,103364.25
2023-01-27T15:21:22.189Z,103359.09
2023-01-27T15:24:17.344Z,103336.84
2023-01-27T15:26:44.647Z,103334.06
2023-01-27T15:29:16.135Z,103332.38
2023-01-27T15:31:43.272Z,103346.28
2023-01-27T15:34:10.023Z,103343.69
2023-01-27T15:36:57.953Z,103344.53
2023-01-27T15:39:32.400Z,103345.50
2023-01-27T15:42:07.396Z,103335.06
2023-01-27T15:44:40.781Z,103343.00
2023-01-27T15:47:22.553Z,103337.94
2023-01-27T15:49:59.740Z,103347.44
2023-01-27T15:52:34.477Z,103341.31
2023-01-27T15:55:04.511Z,103340.50
2023-01-27T15:57:40.294Z,103349.38
2023-01-27T16:00:25.433Z,103356.38
2023-01-27T16:02:54.890Z,103365.22
2023-01-27T16:05:24.575Z,103363.53
2023-01-27T16:07:55.363Z,103377.56
2023-01-27T16:10:27.684Z,103376.75
2023-01-27T16:13:23.326Z,103369.03
2023-01-27T16:16:10.655Z,103368.09
2023-01-27T16:18:53.735Z,103364.75
2023-01-27T16:21:44.107Z,103360.47
2023-01-27T16:24:23.326Z,103364.91
2023-01-27T16:26:56.445Z,103353.63
2023-01-27T16:29:38.738Z,103351.94
2023-01-27T16:32:20.136Z,103345.91
2023-01-27T16:34:52.128Z,103346.81
2023-01-27T16:37:25.123Z,103350.38
2023-01-27T16:40:24.589Z,103350.44
2023-01-27T16:42:57.614Z,103349.59
2023-01-27T16:45:30.685Z,103341.84
2023-01-27T16:48:05.371Z,103344.50
2023-01-27T16:50:36.419Z,103348.91
2023-01-27T16:53:05.926Z,103355.88
2023-01-27T16:55:32.886Z,103355.91
2023-01-27T16:58:01.923Z,103357.66
2023-01-27T17:00:31.949Z,103358.56
2023-01-27T17:03:03.015Z,103362.03
2023-01-27T17:05:30.304Z,103359.44
2023-01-27T17:08:14.764Z,103363.84
2023-01-27T17:11:04.900Z,103369.06
2023-01-27T17:13:35.227Z,103373.44
2023-01-27T17:16:06.339Z,103373.44
2023-01-27T17:18:51.817Z,103366.50
2023-01-27T17:21:48.332Z,103369.13
2023-01-27T17:24:21.946Z,103372.63
2023-01-27T17:26:54.919Z,103378.69
2023-01-27T17:29:23.941Z,103379.63
2023-01-27T17:31:51.236Z,103385.72
2023-01-27T17:34:20.952Z,103385.72
2023-01-27T17:37:26.621Z,103393.56
2023-01-27T17:39:59.133Z,103391.81
2023-01-27T17:42:30.389Z,103402.22
2023-01-27T17:45:21.039Z,103391.78
2023-01-27T17:47:47.836Z,103403.06
2023-01-27T17:50:23.458Z,103396.09
2023-01-27T17:52:53.161Z,103390.78
2023-01-27T17:55:25.496Z,103391.59
2023-01-27T17:58:02.554Z,103388.88
2023-01-27T18:00:38.157Z,103394.84
2023-01-27T18:03:19.952Z,103389.50
2023-01-27T18:05:51.103Z,103380.72
2023-01-27T18:08:19.603Z,103386.63
2023-01-27T18:10:46.926Z,103384.81
2023-01-27T18:13:16.267Z,103388.16
2023-01-27T18:15:50.205Z,103387.13
2023-01-27T18:18:20.053Z,103380.88
2023-01-27T18:20:59.711Z,103371.25
2023-01-27T18:23:33.924Z,103377.16
2023-01-27T18:26:23.781Z,103385.75
2023-01-27T18:29:00.378Z,103385.63
2023-01-27T18:31:37.156Z,103379.47
2023-01-27T18:34:06.912Z,103389.63
2023-01-27T18:36:36.817Z,103401.75
2023-01-27T18:39:24.609Z,103401.69
2023-01-27T18:41:51.376Z,103399.84
2023-01-27T18:44:18.941Z,103410.16
2023-01-27T18:46:45.787Z,103404.81
2023-01-27T18:49:12.776Z,103394.31
2023-01-27T18:51:39.527Z,103396.81
2023-01-27T18:54:08.735Z,103398.53
2023-01-27T18:56:35.495Z,103394.13
2023-01-27T18:59:02.245Z,103392.38
2023-01-27T19:01:29.124Z,103394.81
2023-01-27T19:03:58.303Z,103394.72
2023-01-27T19:06:26.489Z,103398.94
2023-01-27T19:08:54.757Z,103391.13
2023-01-27T19:11:21.665Z,103389.28
2023-01-27T19:13:48.768Z,103390.06
2023-01-27T19:16:17.949Z,103396.03
2023-01-27T19:18:45.504Z,103393.34
2023-01-27T19:21:16.609Z,103391.69
2023-01-27T19:23:44.880Z,103402.66
2023-01-27T19:26:20.969Z,103406.88
2023-01-27T19:28:52.451Z,103405.84
2023-01-27T19:31:19.182Z,103417.03
2023-01-27T19:33:47.592Z,103407.16
2023-01-27T19:36:20.992Z,103412.16
2023-01-27T19:38:53.230Z,103409.31
2023-01-27T19:41:19.930Z,103410.84
2023-01-27T19:43:50.123Z,103400.44
2023-01-27T19:46:22.243Z,103409.03
2023-01-27T19:48:49.534Z,103410.53
2023-01-27T19:51:18.035Z,103408.50
2023-01-27T19:53:45.267Z,103425.00
2023-01-27T19:56:16.041Z,103431.13
2023-01-27T19:58:45.911Z,103436.13
2023-01-27T20:01:12.792Z,103440.44
2023-01-27T20:03:39.576Z,103442.81
2023-01-27T20:06:27.973Z,103437.69
2023-01-27T20:08:56.841Z,103428.94
2023-01-27T20:11:40.742Z,103434.09
2023-01-27T20:14:19.478Z,103428.91
2023-01-27T20:16:47.494Z,103435.75
2023-01-27T20:19:15.855Z,103441.56
2023-01-27T20:21:44.137Z,103440.63
2023-01-27T20:24:16.575Z,103440.50
2023-01-27T20:26:43.328Z,103446.56
2023-01-27T20:29:10.205Z,103440.47
2023-01-27T20:31:38.941Z,103448.38
2023-01-27T20:34:06.343Z,103437.19
2023-01-27T20:36:33.362Z,103440.59
2023-01-27T20:39:00.189Z,103445.84
2023-01-27T20:41:26.914Z,103438.19
2023-01-27T20:44:00.758Z,103440.75
2023-01-27T20:46:28.843Z,103440.91
2023-01-27T20:48:56.447Z,103439.28
2023-01-27T20:51:23.202Z,103440.09
2023-01-27T20:53:49.950Z,103450.34
2023-01-27T20:56:19.306Z,103447.69
2023-01-27T20:58:46.610Z,103451.78
2023-01-27T21:01:21.018Z,103444.75
2023-01-27T21:03:48.515Z,103443.56
2023-01-27T21:06:17.883Z,103445.97
2023-01-27T21:08:44.768Z,103436.34
2023-01-27T21:11:13.161Z,103433.81
2023-01-27T21:13:40.088Z,103431.38
2023-01-27T21:16:06.912Z,103440.22
2023-01-27T21:18:33.792Z,103422.78
2023-01-27T21:21:02.671Z,103434.66
2023-01-27T21:23:29.938Z,103429.06
2023-01-27T21:25:56.733Z,103422.78
2023-01-27T21:28:23.807Z,103425.94
2023-01-27T21:30:50.565Z,103412.16
2023-01-27T21:33:17.430Z,103396.41
2023-01-27T21:35:44.159Z,103419.06
2023-01-27T21:38:11.016Z,103415.56
2023-01-27T21:40:40.266Z,103416.22
2023-01-27T21:43:27.674Z,103416.03
2023-01-27T21:45:59.225Z,103408.09
2023-01-27T21:48:26.118Z,103400.81
2023-01-27T21:50:52.867Z,103383.34
2023-01-27T21:53:19.779Z,103396.00
2023-01-27T21:55:46.510Z,103399.56
2023-01-27T21:58:13.223Z,103397.16
2023-01-27T22:00:40.096Z,103404.13
2023-01-27T22:03:06.827Z,103406.09
2023-01-27T22:05:36.457Z,103406.22
2023-01-27T22:08:03.337Z,103401.13
2023-01-27T22:10:30.630Z,103395.16
2023-01-27T22:12:59.712Z,103405.66
2023-01-27T22:15:28.918Z,103410.91
2023-01-27T22:17:59.611Z,103414.34
2023-01-27T22:20:27.887Z,103417.06
2023-01-27T22:22:54.842Z,103422.38
2023-01-27T22:25:21.655Z,103431.38
2023-01-27T22:27:48.544Z,103422.72
2023-01-27T22:30:19.692Z,103417.78
2023-01-27T22:32:47.274Z,103431.31
2023-01-27T22:35:16.596Z,103440.44
2023-01-27T22:37:44.268Z,103439.38
2023-01-27T22:40:12.617Z,103429.78
2023-01-27T22:42:42.155Z,103432.91
2023-01-27T22:45:10.230Z,103442.13
2023-01-27T22:47:37.190Z,103435.25
2023-01-27T22:50:04.195Z,103436.88
2023-01-27T22:52:30.964Z,103432.38
2023-01-27T22:54:57.684Z,103416.75
2023-01-27T22:57:30.291Z,103420.03
2023-01-27T22:59:58.414Z,103409.41
2023-01-27T23:02:27.982Z,103408.25
2023-01-27T23:04:54.860Z,103416.88
2023-01-27T23:07:21.795Z,103409.81
2023-01-27T23:09:49.279Z,103408.78
2023-01-27T23:12:16.574Z,103403.84
2023-01-27T23:14:43.381Z,103405.78
2023-01-27T23:17:10.110Z,103419.13
2023-01-27T23:19:36.844Z,103425.50
2023-01-27T23:22:03.649Z,103420.78
2023-01-27T23:24:30.524Z,103416.88
2023-01-27T23:26:57.259Z,103427.44
2023-01-27T23:29:25.819Z,103427.75
2023-01-27T23:31:53.576Z,103427.13
2023-01-27T23:34:20.549Z,103429.69
2023-01-27T23:36:48.466Z,103439.25
2023-01-27T23:39:16.577Z,103437.66
2023-01-27T23:41:43.351Z,103437.81
2023-01-27T23:44:11.459Z,103448.34
2023-01-27T23:46:38.535Z,103449.50
2023-01-27T23:49:05.295Z,103442.69
2023-01-27T23:51:32.137Z,103446.28
2023-01-27T23:53:59.688Z,103454.16
2023-01-27T23:56:26.460Z,103446.63
2023-01-27T23:58:53.342Z,103448.59
